sensor_id;sensor_type;location;lat;lon;timestamp;temperature;humidity
10294;DHT22;5192;50.328;7.610;2022-08-19T00:02:00;18.30;99.90
10294;DHT22;5192;50.328;7.610;2022-08-19T00:04:32;18.20;99.90
10294;DHT22;5192;50.328;7.610;2022-08-19T00:07:04;18.30;99.90
10294;DHT22;5192;50.328;7.610;2022-08-19T00:09:34;18.30;99.90
10294;DHT22;5192;50.328;7.610;2022-08-19T00:12:00;18.30;99.90
10294;DHT22;5192;50.328;7.610;2022-08-19T00:14:29;18.30;99.90
10294;DHT22;5192;50.328;7.610;2022-08-19T00:16:57;18.30;99.90
10294;DHT22;5192;50.328;7.610;2022-08-19T00:19:24;18.40;99.90
10294;DHT22;5192;50.328;7.610;2022-08-19T00:21:52;18.40;99.90
10294;DHT22;5192;50.328;7.610;2022-08-19T00:24:18;18.40;99.90
10294;DHT22;5192;50.328;7.610;2022-08-19T00:26:45;18.40;99.90
10294;DHT22;5192;50.328;7.610;2022-08-19T00:29:13;18.40;99.90
10294;DHT22;5192;50.328;7.610;2022-08-19T00:31:42;18.50;99.90
10294;DHT22;5192;50.328;7.610;2022-08-19T00:34:12;18.50;99.90
10294;DHT22;5192;50.328;7.610;2022-08-19T00:36:39;18.60;99.90
10294;DHT22;5192;50.328;7.610;2022-08-19T00:39:06;18.60;99.90
10294;DHT22;5192;50.328;7.610;2022-08-19T00:41:33;18.60;99.90
10294;DHT22;5192;50.328;7.610;2022-08-19T00:44:07;18.60;99.90
10294;DHT22;5192;50.328;7.610;2022-08-19T00:46:37;18.60;99.90
10294;DHT22;5192;50.328;7.610;2022-08-19T00:49:10;18.60;99.90
10294;DHT22;5192;50.328;7.610;2022-08-19T00:51:39;18.60;99.90
10294;DHT22;5192;50.328;7.610;2022-08-19T00:54:06;18.60;99.90
10294;DHT22;5192;50.328;7.610;2022-08-19T00:56:32;18.60;99.90
10294;DHT22;5192;50.328;7.610;2022-08-19T00:59:01;18.60;99.90
10294;DHT22;5192;50.328;7.610;2022-08-19T01:01:27;18.70;99.90
10294;DHT22;5192;50.328;7.610;2022-08-19T01:03:54;18.70;99.90
10294;DHT22;5192;50.328;7.610;2022-08-19T01:06:19;18.70;99.90
10294;DHT22;5192;50.328;7.610;2022-08-19T01:08:46;18.70;99.90
10294;DHT22;5192;50.328;7.610;2022-08-19T01:11:13;18.60;99.90
10294;DHT22;5192;50.328;7.610;2022-08-19T01:13:40;18.60;99.90
10294;DHT22;5192;50.328;7.610;2022-08-19T01:16:12;18.60;99.90
10294;DHT22;5192;50.328;7.610;2022-08-19T01:18:42;18.60;99.90
10294;DHT22;5192;50.328;7.610;2022-08-19T01:21:22;18.50;99.90
10294;DHT22;5192;50.328;7.610;2022-08-19T01:23:59;18.50;99.90
10294;DHT22;5192;50.328;7.610;2022-08-19T01:26:27;18.40;99.90
10294;DHT22;5192;50.328;7.610;2022-08-19T01:28:56;18.40;99.90
10294;DHT22;5192;50.328;7.610;2022-08-19T01:31:26;18.40;99.90
10294;DHT22;5192;50.328;7.610;2022-08-19T01:33:54;18.30;99.90
10294;DHT22;5192;50.328;7.610;2022-08-19T01:36:38;18.30;99.90
10294;DHT22;5192;50.328;7.610;2022-08-19T01:39:10;18.20;99.90
10294;DHT22;5192;50.328;7.610;2022-08-19T01:41:37;18.20;99.90
10294;DHT22;5192;50.328;7.610;2022-08-19T01:44:05;18.10;99.90
10294;DHT22;5192;50.328;7.610;2022-08-19T01:46:33;18.10;99.90
10294;DHT22;5192;50.328;7.610;2022-08-19T01:48:59;18.10;99.90
10294;DHT22;5192;50.328;7.610;2022-08-19T01:51:25;18.00;99.90
10294;DHT22;5192;50.328;7.610;2022-08-19T01:53:53;18.00;99.90
10294;DHT22;5192;50.328;7.610;2022-08-19T01:56:19;18.00;99.90
10294;DHT22;5192;50.328;7.610;2022-08-19T01:58:56;18.00;99.90
10294;DHT22;5192;50.328;7.610;2022-08-19T02:01:24;18.00;99.90
10294;DHT22;5192;50.328;7.610;2022-08-19T02:03:51;18.00;99.90
10294;DHT22;5192;50.328;7.610;2022-08-19T02:06:20;17.90;99.90
10294;DHT22;5192;50.328;7.610;2022-08-19T02:08:46;18.00;99.90
10294;DHT22;5192;50.328;7.610;2022-08-19T02:11:26;18.00;99.90
10294;DHT22;5192;50.328;7.610;2022-08-19T02:13:54;18.00;99.90
10294;DHT22;5192;50.328;7.610;2022-08-19T02:16:23;17.90;99.90
10294;DHT22;5192;50.328;7.610;2022-08-19T02:18:51;17.90;99.90
10294;DHT22;5192;50.328;7.610;2022-08-19T02:21:20;17.80;99.90
10294;DHT22;5192;50.328;7.610;2022-08-19T02:23:48;17.80;99.90
10294;DHT22;5192;50.328;7.610;2022-08-19T02:26:16;17.70;99.90
10294;DHT22;5192;50.328;7.610;2022-08-19T02:28:44;17.70;99.90
10294;DHT22;5192;50.328;7.610;2022-08-19T02:31:14;17.70;99.90
10294;DHT22;5192;50.328;7.610;2022-08-19T02:33:46;17.60;99.90
10294;DHT22;5192;50.328;7.610;2022-08-19T02:36:15;17.60;99.90
10294;DHT22;5192;50.328;7.610;2022-08-19T02:38:45;17.60;99.90
10294;DHT22;5192;50.328;7.610;2022-08-19T02:41:14;17.50;99.90
10294;DHT22;5192;50.328;7.610;2022-08-19T02:43:43;17.50;99.90
10294;DHT22;5192;50.328;7.610;2022-08-19T02:49:07;17.40;99.90
10294;DHT22;5192;50.328;7.610;2022-08-19T02:51:40;17.40;99.90
10294;DHT22;5192;50.328;7.610;2022-08-19T02:54:10;17.40;99.90
10294;DHT22;5192;50.328;7.610;2022-08-19T02:56:38;17.40;99.90
10294;DHT22;5192;50.328;7.610;2022-08-19T02:59:06;17.30;99.90
10294;DHT22;5192;50.328;7.610;2022-08-19T03:01:34;17.20;99.90
10294;DHT22;5192;50.328;7.610;2022-08-19T03:04:03;17.20;99.90
10294;DHT22;5192;50.328;7.610;2022-08-19T03:06:32;17.20;99.90
10294;DHT22;5192;50.328;7.610;2022-08-19T03:09:01;17.20;99.90
10294;DHT22;5192;50.328;7.610;2022-08-19T03:11:31;17.10;99.90
10294;DHT22;5192;50.328;7.610;2022-08-19T03:14:00;17.10;99.90
10294;DHT22;5192;50.328;7.610;2022-08-19T03:16:28;17.00;99.90
10294;DHT22;5192;50.328;7.610;2022-08-19T03:18:59;17.00;99.90
10294;DHT22;5192;50.328;7.610;2022-08-19T03:21:32;17.00;99.90
10294;DHT22;5192;50.328;7.610;2022-08-19T03:24:03;17.00;99.90
10294;DHT22;5192;50.328;7.610;2022-08-19T03:26:31;17.00;99.90
10294;DHT22;5192;50.328;7.610;2022-08-19T03:29:02;17.00;99.90
10294;DHT22;5192;50.328;7.610;2022-08-19T03:31:29;16.90;99.90
10294;DHT22;5192;50.328;7.610;2022-08-19T03:33:58;16.90;99.90
10294;DHT22;5192;50.328;7.610;2022-08-19T03:36:25;16.90;99.90
10294;DHT22;5192;50.328;7.610;2022-08-19T03:38:55;16.90;99.90
10294;DHT22;5192;50.328;7.610;2022-08-19T03:41:24;16.90;99.90
10294;DHT22;5192;50.328;7.610;2022-08-19T03:43:52;16.90;99.90
10294;DHT22;5192;50.328;7.610;2022-08-19T03:46:32;16.80;99.90
10294;DHT22;5192;50.328;7.610;2022-08-19T03:49:03;16.80;99.90
10294;DHT22;5192;50.328;7.610;2022-08-19T03:51:38;16.80;99.90
10294;DHT22;5192;50.328;7.610;2022-08-19T03:54:08;16.80;99.90
10294;DHT22;5192;50.328;7.610;2022-08-19T03:56:38;16.80;99.90
10294;DHT22;5192;50.328;7.610;2022-08-19T03:59:10;16.80;99.90
10294;DHT22;5192;50.328;7.610;2022-08-19T04:01:39;16.70;99.90
10294;DHT22;5192;50.328;7.610;2022-08-19T04:04:05;16.80;99.90
10294;DHT22;5192;50.328;7.610;2022-08-19T04:06:33;16.70;99.90
10294;DHT22;5192;50.328;7.610;2022-08-19T04:09:02;16.70;99.90
10294;DHT22;5192;50.328;7.610;2022-08-19T04:11:33;16.70;99.90
10294;DHT22;5192;50.328;7.610;2022-08-19T04:14:02;16.70;99.90
10294;DHT22;5192;50.328;7.610;2022-08-19T04:16:28;16.70;99.90
10294;DHT22;5192;50.328;7.610;2022-08-19T04:18:56;16.70;99.90
10294;DHT22;5192;50.328;7.610;2022-08-19T04:21:25;16.80;99.90
10294;DHT22;5192;50.328;7.610;2022-08-19T04:23:53;16.70;99.90
10294;DHT22;5192;50.328;7.610;2022-08-19T04:26:25;16.70;99.90
10294;DHT22;5192;50.328;7.610;2022-08-19T04:28:53;16.70;99.90
10294;DHT22;5192;50.328;7.610;2022-08-19T04:31:26;16.70;99.90
10294;DHT22;5192;50.328;7.610;2022-08-19T04:33:55;16.70;99.90
10294;DHT22;5192;50.328;7.610;2022-08-19T04:36:26;16.70;99.90
10294;DHT22;5192;50.328;7.610;2022-08-19T04:39:01;16.70;99.90
10294;DHT22;5192;50.328;7.610;2022-08-19T04:41:29;16.70;99.90
10294;DHT22;5192;50.328;7.610;2022-08-19T04:44:15;16.70;99.90
10294;DHT22;5192;50.328;7.610;2022-08-19T04:46:49;16.80;99.90
10294;DHT22;5192;50.328;7.610;2022-08-19T04:49:20;16.80;99.90
10294;DHT22;5192;50.328;7.610;2022-08-19T04:51:51;16.80;99.90
10294;DHT22;5192;50.328;7.610;2022-08-19T04:54:30;16.80;99.90
10294;DHT22;5192;50.328;7.610;2022-08-19T04:56:57;16.80;99.90
10294;DHT22;5192;50.328;7.610;2022-08-19T04:59:23;16.80;99.90
10294;DHT22;5192;50.328;7.610;2022-08-19T05:01:50;16.90;99.90
10294;DHT22;5192;50.328;7.610;2022-08-19T05:04:20;16.90;99.90
10294;DHT22;5192;50.328;7.610;2022-08-19T05:06:47;16.90;99.90
10294;DHT22;5192;50.328;7.610;2022-08-19T05:09:18;17.00;99.90
10294;DHT22;5192;50.328;7.610;2022-08-19T05:11:47;17.10;99.90
10294;DHT22;5192;50.328;7.610;2022-08-19T05:14:16;17.20;99.90
10294;DHT22;5192;50.328;7.610;2022-08-19T05:16:43;17.30;99.90
10294;DHT22;5192;50.328;7.610;2022-08-19T05:19:09;17.40;99.90
10294;DHT22;5192;50.328;7.610;2022-08-19T05:21:54;17.40;99.90
10294;DHT22;5192;50.328;7.610;2022-08-19T05:24:40;17.50;99.90
10294;DHT22;5192;50.328;7.610;2022-08-19T05:27:06;17.60;99.90
10294;DHT22;5192;50.328;7.610;2022-08-19T05:29:33;17.60;99.90
10294;DHT22;5192;50.328;7.610;2022-08-19T05:32:08;17.70;99.90
10294;DHT22;5192;50.328;7.610;2022-08-19T05:34:37;17.70;99.90
10294;DHT22;5192;50.328;7.610;2022-08-19T05:37:05;17.70;99.90
10294;DHT22;5192;50.328;7.610;2022-08-19T05:39:36;17.80;99.90
10294;DHT22;5192;50.328;7.610;2022-08-19T05:42:05;17.90;99.90
10294;DHT22;5192;50.328;7.610;2022-08-19T05:44:43;18.00;99.90
10294;DHT22;5192;50.328;7.610;2022-08-19T05:47:17;18.00;99.90
10294;DHT22;5192;50.328;7.610;2022-08-19T05:49:48;18.10;99.90
10294;DHT22;5192;50.328;7.610;2022-08-19T05:52:19;18.10;99.90
10294;DHT22;5192;50.328;7.610;2022-08-19T05:54:48;18.00;99.90
10294;DHT22;5192;50.328;7.610;2022-08-19T05:57:17;18.10;99.90
10294;DHT22;5192;50.328;7.610;2022-08-19T05:59:45;18.20;99.90
10294;DHT22;5192;50.328;7.610;2022-08-19T06:02:15;18.20;99.90
10294;DHT22;5192;50.328;7.610;2022-08-19T06:04:42;18.20;99.90
10294;DHT22;5192;50.328;7.610;2022-08-19T06:07:09;18.30;99.90
10294;DHT22;5192;50.328;7.610;2022-08-19T06:09:36;18.40;99.90
10294;DHT22;5192;50.328;7.610;2022-08-19T06:12:04;18.50;99.90
10294;DHT22;5192;50.328;7.610;2022-08-19T06:14:36;18.50;99.90
10294;DHT22;5192;50.328;7.610;2022-08-19T06:17:03;18.60;99.90
10294;DHT22;5192;50.328;7.610;2022-08-19T06:19:30;18.70;99.90
10294;DHT22;5192;50.328;7.610;2022-08-19T06:21:58;18.70;99.90
10294;DHT22;5192;50.328;7.610;2022-08-19T06:24:27;18.70;99.90
10294;DHT22;5192;50.328;7.610;2022-08-19T06:26:54;18.80;99.90
10294;DHT22;5192;50.328;7.610;2022-08-19T06:29:23;18.80;99.90
10294;DHT22;5192;50.328;7.610;2022-08-19T06:31:52;18.80;99.90
10294;DHT22;5192;50.328;7.610;2022-08-19T06:34:20;18.90;99.90
10294;DHT22;5192;50.328;7.610;2022-08-19T06:36:49;18.90;99.90
10294;DHT22;5192;50.328;7.610;2022-08-19T06:39:21;19.00;99.90
10294;DHT22;5192;50.328;7.610;2022-08-19T06:41:49;19.00;99.90
10294;DHT22;5192;50.328;7.610;2022-08-19T06:44:17;19.20;99.90
10294;DHT22;5192;50.328;7.610;2022-08-19T06:46:44;19.30;99.90
10294;DHT22;5192;50.328;7.610;2022-08-19T06:49:13;19.40;99.90
10294;DHT22;5192;50.328;7.610;2022-08-19T06:51:45;19.50;99.90
10294;DHT22;5192;50.328;7.610;2022-08-19T06:54:15;19.60;99.90
10294;DHT22;5192;50.328;7.610;2022-08-19T06:56:44;19.70;99.90
10294;DHT22;5192;50.328;7.610;2022-08-19T06:59:15;19.70;99.90
10294;DHT22;5192;50.328;7.610;2022-08-19T07:01:46;19.70;99.90
10294;DHT22;5192;50.328;7.610;2022-08-19T07:04:15;19.80;99.90
10294;DHT22;5192;50.328;7.610;2022-08-19T07:06:43;19.80;99.90
10294;DHT22;5192;50.328;7.610;2022-08-19T07:09:12;19.80;99.90
10294;DHT22;5192;50.328;7.610;2022-08-19T07:11:46;19.90;99.90
10294;DHT22;5192;50.328;7.610;2022-08-19T07:14:19;20.00;99.90
10294;DHT22;5192;50.328;7.610;2022-08-19T07:16:49;20.00;99.90
10294;DHT22;5192;50.328;7.610;2022-08-19T07:19:18;20.10;99.90
10294;DHT22;5192;50.328;7.610;2022-08-19T07:21:49;20.20;99.90
10294;DHT22;5192;50.328;7.610;2022-08-19T07:24:17;20.30;99.90
10294;DHT22;5192;50.328;7.610;2022-08-19T07:26:45;20.30;99.90
10294;DHT22;5192;50.328;7.610;2022-08-19T07:29:12;20.30;99.90
10294;DHT22;5192;50.328;7.610;2022-08-19T07:31:39;20.30;99.90
10294;DHT22;5192;50.328;7.610;2022-08-19T07:34:07;20.30;99.90
10294;DHT22;5192;50.328;7.610;2022-08-19T07:36:38;20.40;99.90
10294;DHT22;5192;50.328;7.610;2022-08-19T07:39:09;20.40;99.90
10294;DHT22;5192;50.328;7.610;2022-08-19T07:41:38;20.50;99.90
10294;DHT22;5192;50.328;7.610;2022-08-19T07:44:04;20.50;99.90
10294;DHT22;5192;50.328;7.610;2022-08-19T07:46:37;20.50;99.90
10294;DHT22;5192;50.328;7.610;2022-08-19T07:49:14;20.60;99.90
10294;DHT22;5192;50.328;7.610;2022-08-19T07:51:53;20.60;99.90
10294;DHT22;5192;50.328;7.610;2022-08-19T07:54:23;20.60;99.90
10294;DHT22;5192;50.328;7.610;2022-08-19T07:56:51;20.60;99.90
10294;DHT22;5192;50.328;7.610;2022-08-19T07:59:21;20.60;99.90
10294;DHT22;5192;50.328;7.610;2022-08-19T08:01:49;20.70;99.90
10294;DHT22;5192;50.328;7.610;2022-08-19T08:04:18;20.70;99.90
10294;DHT22;5192;50.328;7.610;2022-08-19T08:07:05;20.70;99.90
10294;DHT22;5192;50.328;7.610;2022-08-19T08:09:51;20.80;99.90
10294;DHT22;5192;50.328;7.610;2022-08-19T08:12:22;21.00;99.90
10294;DHT22;5192;50.328;7.610;2022-08-19T08:14:53;21.00;99.90
10294;DHT22;5192;50.328;7.610;2022-08-19T08:17:22;21.10;99.90
10294;DHT22;5192;50.328;7.610;2022-08-19T08:19:49;21.20;99.90
10294;DHT22;5192;50.328;7.610;2022-08-19T08:22:20;21.30;99.90
10294;DHT22;5192;50.328;7.610;2022-08-19T08:25:14;21.30;99.90
10294;DHT22;5192;50.328;7.610;2022-08-19T08:27:46;21.40;99.90
10294;DHT22;5192;50.328;7.610;2022-08-19T08:30:17;21.30;99.90
10294;DHT22;5192;50.328;7.610;2022-08-19T08:32:44;21.40;99.90
10294;DHT22;5192;50.328;7.610;2022-08-19T08:35:15;21.40;99.90
10294;DHT22;5192;50.328;7.610;2022-08-19T08:37:44;21.50;99.90
10294;DHT22;5192;50.328;7.610;2022-08-19T08:40:33;21.60;99.90
10294;DHT22;5192;50.328;7.610;2022-08-19T08:43:21;21.70;99.90
10294;DHT22;5192;50.328;7.610;2022-08-19T08:46:23;21.70;99.90
10294;DHT22;5192;50.328;7.610;2022-08-19T08:54:57;22.00;99.90
10294;DHT22;5192;50.328;7.610;2022-08-19T08:57:39;22.10;99.90
10294;DHT22;5192;50.328;7.610;2022-08-19T09:00:31;22.20;99.90
10294;DHT22;5192;50.328;7.610;2022-08-19T09:02:59;22.20;99.90
10294;DHT22;5192;50.328;7.610;2022-08-19T09:05:37;22.40;99.90
10294;DHT22;5192;50.328;7.610;2022-08-19T09:17:08;22.70;99.90
10294;DHT22;5192;50.328;7.610;2022-08-19T09:22:41;22.90;99.90
10294;DHT22;5192;50.328;7.610;2022-08-19T09:25:15;23.00;99.90
10294;DHT22;5192;50.328;7.610;2022-08-19T09:27:43;23.10;99.90
10294;DHT22;5192;50.328;7.610;2022-08-19T09:30:21;23.20;99.90
10294;DHT22;5192;50.328;7.610;2022-08-19T09:32:48;23.30;99.90
10294;DHT22;5192;50.328;7.610;2022-08-19T09:35:14;23.40;99.90
10294;DHT22;5192;50.328;7.610;2022-08-19T09:37:43;23.60;99.90
10294;DHT22;5192;50.328;7.610;2022-08-19T09:40:10;23.60;99.90
10294;DHT22;5192;50.328;7.610;2022-08-19T09:42:38;23.60;99.90
10294;DHT22;5192;50.328;7.610;2022-08-19T09:45:04;23.80;99.90
10294;DHT22;5192;50.328;7.610;2022-08-19T09:47:32;23.90;99.90
10294;DHT22;5192;50.328;7.610;2022-08-19T09:50:07;24.00;99.90
10294;DHT22;5192;50.328;7.610;2022-08-19T09:52:33;24.20;99.90
10294;DHT22;5192;50.328;7.610;2022-08-19T09:55:04;24.20;99.90
10294;DHT22;5192;50.328;7.610;2022-08-19T09:57:31;24.50;99.90
10294;DHT22;5192;50.328;7.610;2022-08-19T09:59:57;24.50;87.20
10294;DHT22;5192;50.328;7.610;2022-08-19T10:02:26;24.60;66.80
10294;DHT22;5192;50.328;7.610;2022-08-19T10:04:53;24.60;44.90
10294;DHT22;5192;50.328;7.610;2022-08-19T10:07:39;24.60;38.00
10294;DHT22;5192;50.328;7.610;2022-08-19T10:10:06;24.70;15.40
10294;DHT22;5192;50.328;7.610;2022-08-19T10:12:34;24.90;16.50
10294;DHT22;5192;50.328;7.610;2022-08-19T10:15:05;25.10;3.80
10294;DHT22;5192;50.328;7.610;2022-08-19T10:17:34;25.10;1.00
10294;DHT22;5192;50.328;7.610;2022-08-19T10:20:00;25.20;1.00
10294;DHT22;5192;50.328;7.610;2022-08-19T10:22:30;25.30;1.00
10294;DHT22;5192;50.328;7.610;2022-08-19T10:24:57;25.40;1.00
10294;DHT22;5192;50.328;7.610;2022-08-19T10:27:23;25.30;1.00
10294;DHT22;5192;50.328;7.610;2022-08-19T10:29:52;25.40;1.00
10294;DHT22;5192;50.328;7.610;2022-08-19T10:32:19;25.40;1.00
10294;DHT22;5192;50.328;7.610;2022-08-19T10:34:48;25.40;1.00
10294;DHT22;5192;50.328;7.610;2022-08-19T10:37:16;25.60;1.00
10294;DHT22;5192;50.328;7.610;2022-08-19T10:39:46;25.60;1.00
10294;DHT22;5192;50.328;7.610;2022-08-19T10:42:14;25.70;1.00
10294;DHT22;5192;50.328;7.610;2022-08-19T10:44:41;25.80;1.00
10294;DHT22;5192;50.328;7.610;2022-08-19T10:47:09;26.10;1.00
10294;DHT22;5192;50.328;7.610;2022-08-19T10:49:35;26.20;1.00
10294;DHT22;5192;50.328;7.610;2022-08-19T10:52:23;26.30;1.00
10294;DHT22;5192;50.328;7.610;2022-08-19T10:55:23;26.20;1.00
10294;DHT22;5192;50.328;7.610;2022-08-19T10:58:17;25.90;1.00
10294;DHT22;5192;50.328;7.610;2022-08-19T11:00:59;25.90;1.00
10294;DHT22;5192;50.328;7.610;2022-08-19T11:03:27;25.90;1.00
10294;DHT22;5192;50.328;7.610;2022-08-19T11:06:03;25.80;1.00
10294;DHT22;5192;50.328;7.610;2022-08-19T11:08:32;26.00;1.00
10294;DHT22;5192;50.328;7.610;2022-08-19T11:11:04;26.10;1.00
10294;DHT22;5192;50.328;7.610;2022-08-19T11:13:34;26.10;1.00
10294;DHT22;5192;50.328;7.610;2022-08-19T11:16:10;26.10;1.00
10294;DHT22;5192;50.328;7.610;2022-08-19T11:18:44;26.30;1.00
10294;DHT22;5192;50.328;7.610;2022-08-19T11:23:55;26.20;1.00
10294;DHT22;5192;50.328;7.610;2022-08-19T11:26:24;26.50;1.00
10294;DHT22;5192;50.328;7.610;2022-08-19T11:28:51;26.60;1.00
10294;DHT22;5192;50.328;7.610;2022-08-19T11:31:27;26.60;1.00
10294;DHT22;5192;50.328;7.610;2022-08-19T11:33:56;26.50;1.00
10294;DHT22;5192;50.328;7.610;2022-08-19T11:36:23;26.60;1.00
10294;DHT22;5192;50.328;7.610;2022-08-19T11:38:49;26.70;1.00
10294;DHT22;5192;50.328;7.610;2022-08-19T11:41:19;26.90;1.00
10294;DHT22;5192;50.328;7.610;2022-08-19T11:43:51;27.00;1.00
10294;DHT22;5192;50.328;7.610;2022-08-19T11:46:26;26.90;1.00
10294;DHT22;5192;50.328;7.610;2022-08-19T11:49:07;27.10;1.00
10294;DHT22;5192;50.328;7.610;2022-08-19T11:51:36;27.10;1.00
10294;DHT22;5192;50.328;7.610;2022-08-19T11:54:06;27.40;1.00
10294;DHT22;5192;50.328;7.610;2022-08-19T11:56:33;27.70;1.00
10294;DHT22;5192;50.328;7.610;2022-08-19T11:59:00;27.60;1.00
10294;DHT22;5192;50.328;7.610;2022-08-19T12:01:28;27.70;1.00
10294;DHT22;5192;50.328;7.610;2022-08-19T12:03:55;27.70;1.00
10294;DHT22;5192;50.328;7.610;2022-08-19T12:06:25;27.70;1.00
10294;DHT22;5192;50.328;7.610;2022-08-19T12:08:58;27.70;1.00
10294;DHT22;5192;50.328;7.610;2022-08-19T12:11:26;27.70;1.00
10294;DHT22;5192;50.328;7.610;2022-08-19T12:13:56;27.70;1.00
10294;DHT22;5192;50.328;7.610;2022-08-19T12:16:26;27.80;1.00
10294;DHT22;5192;50.328;7.610;2022-08-19T12:18:53;28.00;1.00
10294;DHT22;5192;50.328;7.610;2022-08-19T12:21:25;28.10;1.00
10294;DHT22;5192;50.328;7.610;2022-08-19T12:23:55;28.30;1.00
10294;DHT22;5192;50.328;7.610;2022-08-19T12:26:24;28.50;1.00
10294;DHT22;5192;50.328;7.610;2022-08-19T12:28:52;28.50;1.00
10294;DHT22;5192;50.328;7.610;2022-08-19T12:31:35;28.60;1.00
10294;DHT22;5192;50.328;7.610;2022-08-19T12:34:02;28.90;1.00
10294;DHT22;5192;50.328;7.610;2022-08-19T12:36:27;29.10;1.00
10294;DHT22;5192;50.328;7.610;2022-08-19T12:38:55;29.10;1.00
10294;DHT22;5192;50.328;7.610;2022-08-19T12:41:22;29.10;1.00
10294;DHT22;5192;50.328;7.610;2022-08-19T12:43:49;29.20;1.00
10294;DHT22;5192;50.328;7.610;2022-08-19T12:46:18;29.30;1.00
10294;DHT22;5192;50.328;7.610;2022-08-19T12:48:46;29.40;1.00
10294;DHT22;5192;50.328;7.610;2022-08-19T12:51:16;29.30;1.00
10294;DHT22;5192;50.328;7.610;2022-08-19T12:53:54;29.20;1.00
10294;DHT22;5192;50.328;7.610;2022-08-19T12:56:20;29.20;1.00
10294;DHT22;5192;50.328;7.610;2022-08-19T12:58:46;29.50;1.00
10294;DHT22;5192;50.328;7.610;2022-08-19T13:01:15;29.50;1.00
10294;DHT22;5192;50.328;7.610;2022-08-19T13:03:42;29.30;1.00
10294;DHT22;5192;50.328;7.610;2022-08-19T13:06:10;29.00;1.00
10294;DHT22;5192;50.328;7.610;2022-08-19T13:08:37;28.60;1.00
10294;DHT22;5192;50.328;7.610;2022-08-19T13:11:17;28.30;1.00
10294;DHT22;5192;50.328;7.610;2022-08-19T13:13:47;28.30;1.00
10294;DHT22;5192;50.328;7.610;2022-08-19T13:16:18;28.40;1.00
10294;DHT22;5192;50.328;7.610;2022-08-19T13:18:46;28.40;1.00
10294;DHT22;5192;50.328;7.610;2022-08-19T13:21:21;28.50;1.00
10294;DHT22;5192;50.328;7.610;2022-08-19T13:23:48;28.60;1.00
10294;DHT22;5192;50.328;7.610;2022-08-19T13:26:16;28.70;1.00
10294;DHT22;5192;50.328;7.610;2022-08-19T13:28:45;28.90;1.00
10294;DHT22;5192;50.328;7.610;2022-08-19T13:31:43;29.00;1.00
10294;DHT22;5192;50.328;7.610;2022-08-19T13:34:38;29.00;1.00
10294;DHT22;5192;50.328;7.610;2022-08-19T13:37:06;29.00;1.00
10294;DHT22;5192;50.328;7.610;2022-08-19T13:39:35;28.90;1.00
10294;DHT22;5192;50.328;7.610;2022-08-19T13:42:07;29.10;1.00
10294;DHT22;5192;50.328;7.610;2022-08-19T13:44:45;29.30;1.00
10294;DHT22;5192;50.328;7.610;2022-08-19T13:47:16;29.50;1.00
10294;DHT22;5192;50.328;7.610;2022-08-19T13:49:49;29.60;1.00
10294;DHT22;5192;50.328;7.610;2022-08-19T13:52:17;29.50;1.00
10294;DHT22;5192;50.328;7.610;2022-08-19T13:54:45;29.40;1.00
10294;DHT22;5192;50.328;7.610;2022-08-19T13:57:14;29.60;1.00
10294;DHT22;5192;50.328;7.610;2022-08-19T13:59:41;30.10;1.00
10294;DHT22;5192;50.328;7.610;2022-08-19T14:02:13;30.90;1.00
10294;DHT22;5192;50.328;7.610;2022-08-19T14:04:46;31.40;1.00
10294;DHT22;5192;50.328;7.610;2022-08-19T14:07:12;32.00;1.00
10294;DHT22;5192;50.328;7.610;2022-08-19T14:09:38;32.30;1.00
10294;DHT22;5192;50.328;7.610;2022-08-19T14:12:07;32.60;1.00
10294;DHT22;5192;50.328;7.610;2022-08-19T14:14:37;32.60;1.00
10294;DHT22;5192;50.328;7.610;2022-08-19T14:17:08;33.30;1.00
10294;DHT22;5192;50.328;7.610;2022-08-19T14:19:35;33.50;1.00
10294;DHT22;5192;50.328;7.610;2022-08-19T14:22:09;33.60;1.00
10294;DHT22;5192;50.328;7.610;2022-08-19T14:24:38;33.80;1.00
10294;DHT22;5192;50.328;7.610;2022-08-19T14:27:06;34.10;1.00
10294;DHT22;5192;50.328;7.610;2022-08-19T14:29:33;34.70;1.00
10294;DHT22;5192;50.328;7.610;2022-08-19T14:32:05;34.80;1.00
10294;DHT22;5192;50.328;7.610;2022-08-19T14:34:32;35.00;1.00
10294;DHT22;5192;50.328;7.610;2022-08-19T14:37:08;35.00;1.00
10294;DHT22;5192;50.328;7.610;2022-08-19T14:39:35;35.30;1.00
10294;DHT22;5192;50.328;7.610;2022-08-19T14:42:07;35.30;1.00
10294;DHT22;5192;50.328;7.610;2022-08-19T14:44:37;34.80;1.00
10294;DHT22;5192;50.328;7.610;2022-08-19T14:47:07;34.80;1.00
10294;DHT22;5192;50.328;7.610;2022-08-19T14:49:35;34.90;1.00
10294;DHT22;5192;50.328;7.610;2022-08-19T14:52:07;34.90;1.00
10294;DHT22;5192;50.328;7.610;2022-08-19T14:54:33;34.90;1.00
10294;DHT22;5192;50.328;7.610;2022-08-19T14:56:58;35.30;1.00
10294;DHT22;5192;50.328;7.610;2022-08-19T14:59:25;35.70;1.00
10294;DHT22;5192;50.328;7.610;2022-08-19T15:01:55;35.30;1.00
10294;DHT22;5192;50.328;7.610;2022-08-19T15:04:27;34.90;1.00
10294;DHT22;5192;50.328;7.610;2022-08-19T15:06:55;34.20;1.00
10294;DHT22;5192;50.328;7.610;2022-08-19T15:09:27;33.40;1.00
10294;DHT22;5192;50.328;7.610;2022-08-19T15:11:52;33.00;1.00
10294;DHT22;5192;50.328;7.610;2022-08-19T15:14:19;32.80;1.00
10294;DHT22;5192;50.328;7.610;2022-08-19T15:16:55;33.10;1.00
10294;DHT22;5192;50.328;7.610;2022-08-19T15:19:26;33.20;1.00
10294;DHT22;5192;50.328;7.610;2022-08-19T15:21:54;33.00;1.00
10294;DHT22;5192;50.328;7.610;2022-08-19T15:24:20;32.90;1.00
10294;DHT22;5192;50.328;7.610;2022-08-19T15:27:06;32.70;1.00
10294;DHT22;5192;50.328;7.610;2022-08-19T15:29:33;32.40;1.00
10294;DHT22;5192;50.328;7.610;2022-08-19T15:31:59;32.40;1.00
10294;DHT22;5192;50.328;7.610;2022-08-19T15:34:34;32.30;1.00
10294;DHT22;5192;50.328;7.610;2022-08-19T15:37:06;32.50;1.00
10294;DHT22;5192;50.328;7.610;2022-08-19T15:39:35;32.60;1.00
10294;DHT22;5192;50.328;7.610;2022-08-19T15:42:06;32.70;1.00
10294;DHT22;5192;50.328;7.610;2022-08-19T15:44:33;32.40;1.00
10294;DHT22;5192;50.328;7.610;2022-08-19T15:46:59;32.30;1.00
10294;DHT22;5192;50.328;7.610;2022-08-19T15:49:26;32.10;1.00
10294;DHT22;5192;50.328;7.610;2022-08-19T15:51:51;31.70;1.00
10294;DHT22;5192;50.328;7.610;2022-08-19T15:54:27;30.90;1.00
10294;DHT22;5192;50.328;7.610;2022-08-19T15:56:54;30.20;1.00
10294;DHT22;5192;50.328;7.610;2022-08-19T15:59:39;29.70;1.00
10294;DHT22;5192;50.328;7.610;2022-08-19T16:02:29;29.50;1.00
10294;DHT22;5192;50.328;7.610;2022-08-19T16:05:19;29.40;1.00
10294;DHT22;5192;50.328;7.610;2022-08-19T16:08:07;29.20;1.00
10294;DHT22;5192;50.328;7.610;2022-08-19T16:10:37;29.20;1.00
10294;DHT22;5192;50.328;7.610;2022-08-19T16:13:08;29.00;1.00
10294;DHT22;5192;50.328;7.610;2022-08-19T16:15:38;28.90;1.00
10294;DHT22;5192;50.328;7.610;2022-08-19T16:18:26;28.80;1.00
10294;DHT22;5192;50.328;7.610;2022-08-19T16:20:53;28.80;1.00
10294;DHT22;5192;50.328;7.610;2022-08-19T16:23:19;28.70;1.00
10294;DHT22;5192;50.328;7.610;2022-08-19T16:25:47;28.50;1.00
10294;DHT22;5192;50.328;7.610;2022-08-19T16:28:12;28.40;1.00
10294;DHT22;5192;50.328;7.610;2022-08-19T16:30:40;28.40;1.00
10294;DHT22;5192;50.328;7.610;2022-08-19T16:33:14;28.40;1.00
10294;DHT22;5192;50.328;7.610;2022-08-19T16:35:39;28.30;1.00
10294;DHT22;5192;50.328;7.610;2022-08-19T16:38:07;28.20;1.00